Time,TemperatureF,DewpointF,PressureIn,WindDirection,WindDirectionDegrees,WindSpeedMPH,WindSpeedGustMPH,Humidity,HourlyPrecipIn,Conditions,Clouds,dailyrainin,SoftwareType,DateUTC
2013-03-28 00:03:00,35.0,27.0,30.29,West,271,0.0,-999.0,73,-99.99,,,-99.99,,2013-03-28 04:03:00,
2013-03-28 00:12:00,35.0,27.0,30.29,West,271,0.0,-999.0,73,-99.99,,,-99.99,,2013-03-28 04:12:00,
2013-03-28 00:23:00,35.0,28.0,30.28,West,271,0.0,-999.0,74,-99.99,,,-99.99,,2013-03-28 04:23:00,
2013-03-28 00:32:00,35.0,28.0,30.29,West,271,0.0,-999.0,76,-99.99,,,-99.99,,2013-03-28 04:32:00,
2013-03-28 00:42:00,35.0,28.0,30.29,West,271,0.0,-999.0,76,-99.99,,,-99.99,,2013-03-28 04:42:00,
2013-03-28 00:52:00,34.0,27.0,30.28,West,271,0.0,-999.0,76,-99.99,,,-99.99,,2013-03-28 04:52:00,
2013-03-28 01:02:00,34.0,28.0,30.28,West,271,0.0,-999.0,77,-99.99,,,-99.99,,2013-03-28 05:02:00,
2013-03-28 01:12:00,34.0,28.0,30.28,West,271,0.0,-999.0,77,-99.99,,,-99.99,,2013-03-28 05:12:00,
2013-03-28 01:22:00,33.0,27.0,30.28,West,271,0.0,-999.0,78,-99.99,,,-99.99,,2013-03-28 05:22:00,
2013-03-28 01:32:00,33.0,28.0,30.28,West,271,0.0,-999.0,80,-99.99,,,-99.99,,2013-03-28 05:32:00,
2013-03-28 01:42:00,33.0,28.0,30.28,West,271,0.0,-999.0,80,-99.99,,,-99.99,,2013-03-28 05:42:00,
2013-03-28 01:52:00,32.0,27.0,30.28,West,271,0.0,-999.0,80,-99.99,,,-99.99,,2013-03-28 05:52:00,
2013-03-28 02:02:00,32.0,27.0,30.28,West,271,0.0,-999.0,81,-99.99,,,-99.99,,2013-03-28 06:02:00,
2013-03-28 02:12:00,32.0,27.0,30.28,West,271,0.0,-999.0,81,-99.99,,,-99.99,,2013-03-28 06:12:00,
2013-03-28 02:22:00,32.0,27.0,30.27,West,271,0.0,-999.0,81,-99.99,,,-99.99,,2013-03-28 06:22:00,
2013-03-28 02:32:00,31.0,26.0,30.28,West,271,0.0,-999.0,82,-99.99,,,-99.99,,2013-03-28 06:32:00,
2013-03-28 02:42:00,31.0,26.0,30.28,West,271,0.0,-999.0,82,-99.99,,,-99.99,,2013-03-28 06:42:00,
2013-03-28 02:52:00,31.0,26.0,30.28,West,271,0.0,-999.0,83,-99.99,,,-99.99,,2013-03-28 06:52:00,
2013-03-28 03:02:00,30.0,25.0,30.28,West,271,0.0,-999.0,83,-99.99,,,-99.99,,2013-03-28 07:02:00,
2013-03-28 03:13:00,30.0,25.0,30.28,West,271,0.0,-999.0,83,-99.99,,,-99.99,,2013-03-28 07:13:00,
2013-03-28 03:22:00,29.0,25.0,30.27,West,271,0.0,-999.0,83,-99.99,,,-99.99,,2013-03-28 07:22:00,
2013-03-28 03:32:00,29.0,25.0,30.28,West,271,0.0,-999.0,85,-99.99,,,-99.99,,2013-03-28 07:32:00,
2013-03-28 03:42:00,29.0,25.0,30.28,West,271,0.0,-999.0,85,-99.99,,,-99.99,,2013-03-28 07:42:00,
2013-03-28 03:52:00,29.0,25.0,30.27,West,271,0.0,-999.0,86,-99.99,,,-99.99,,2013-03-28 07:52:00,
2013-03-28 04:03:00,30.0,26.0,30.27,West,271,0.0,-999.0,85,-99.99,,,-99.99,,2013-03-28 08:03:00,
2013-03-28 04:12:00,30.0,26.0,30.27,West,271,0.0,-999.0,85,-99.99,,,-99.99,,2013-03-28 08:12:00,
2013-03-28 04:21:00,29.0,25.0,30.27,West,271,0.0,-999.0,83,-99.99,,,-99.99,,2013-03-28 08:21:00,
2013-03-28 04:33:00,29.0,25.0,30.28,West,271,0.0,-999.0,83,-99.99,,,-99.99,,2013-03-28 08:33:00,
2013-03-28 04:42:00,29.0,25.0,30.28,West,271,0.0,-999.0,83,-99.99,,,-99.99,,2013-03-28 08:42:00,
2013-03-28 04:52:00,28.0,24.0,30.28,West,271,0.0,-999.0,85,-99.99,,,-99.99,,2013-03-28 08:52:00,
2013-03-28 05:02:00,27.0,23.0,30.28,West,271,0.0,-999.0,86,-99.99,,,-99.99,,2013-03-28 09:02:00,
2013-03-28 05:12:00,27.0,23.0,30.28,West,271,0.0,-999.0,86,-99.99,,,-99.99,,2013-03-28 09:12:00,
2013-03-28 05:22:00,27.0,24.0,30.28,West,271,0.0,-999.0,87,-99.99,,,-99.99,,2013-03-28 09:22:00,
2013-03-28 05:33:00,27.0,24.0,30.28,West,271,0.0,-999.0,88,-99.99,,,-99.99,,2013-03-28 09:33:00,
2013-03-28 05:42:00,27.0,24.0,30.28,West,271,0.0,-999.0,88,-99.99,,,-99.99,,2013-03-28 09:42:00,
2013-03-28 05:52:00,27.0,24.0,30.29,West,271,0.0,-999.0,88,-99.99,,,-99.99,,2013-03-28 09:52:00,
2013-03-28 06:03:00,27.0,24.0,30.29,West,271,0.0,-999.0,88,-99.99,,,-99.99,,2013-03-28 10:03:00,
2013-03-28 06:12:00,27.0,24.0,30.29,West,271,0.0,-999.0,88,-99.99,,,-99.99,,2013-03-28 10:12:00,
2013-03-28 06:22:00,26.0,23.0,30.29,West,271,0.0,-999.0,89,-99.99,,,-99.99,,2013-03-28 10:22:00,
2013-03-28 06:33:00,26.0,23.0,30.29,West,271,0.0,-999.0,89,-99.99,,,-99.99,,2013-03-28 10:33:00,
2013-03-28 06:43:00,26.0,23.0,30.29,West,271,0.0,-999.0,89,-99.99,,,-99.99,,2013-03-28 10:43:00,
2013-03-28 06:52:00,26.0,23.0,30.29,West,271,0.0,-999.0,89,-99.99,,,-99.99,,2013-03-28 10:52:00,
2013-03-28 07:03:00,26.0,23.0,30.30,West,271,0.0,-999.0,89,-99.99,,,-99.99,,2013-03-28 11:03:00,
2013-03-28 07:12:00,26.0,23.0,30.30,West,271,0.0,-999.0,89,-99.99,,,-99.99,,2013-03-28 11:12:00,
2013-03-28 07:23:00,25.0,22.0,30.30,West,271,0.0,-999.0,89,-99.99,,,-99.99,,2013-03-28 11:23:00,
2013-03-28 07:32:00,26.0,23.0,30.31,West,271,0.0,-999.0,90,-99.99,,,-99.99,,2013-03-28 11:32:00,
2013-03-28 07:43:00,26.0,23.0,30.31,West,271,0.0,-999.0,90,-99.99,,,-99.99,,2013-03-28 11:43:00,
2013-03-28 07:52:00,26.0,23.0,30.31,West,271,0.0,-999.0,90,-99.99,,,-99.99,,2013-03-28 11:52:00,
2013-03-28 08:02:00,26.0,23.0,30.32,West,271,0.0,-999.0,90,-99.99,,,-99.99,,2013-03-28 12:02:00,
2013-03-28 08:12:00,26.0,23.0,30.32,West,271,0.0,-999.0,90,-99.99,,,-99.99,,2013-03-28 12:12:00,
2013-03-28 08:22:00,25.0,22.0,30.32,West,271,0.0,-999.0,89,-99.99,,,-99.99,,2013-03-28 12:22:00,
2013-03-28 08:32:00,26.0,23.0,30.32,West,271,0.0,-999.0,90,-99.99,,,-99.99,,2013-03-28 12:32:00,
2013-03-28 08:42:00,26.0,23.0,30.32,West,271,0.0,-999.0,90,-99.99,,,-99.99,,2013-03-28 12:42:00,
2013-03-28 08:52:00,27.0,25.0,30.32,West,271,0.0,-999.0,91,-99.99,,,-99.99,,2013-03-28 12:52:00,
2013-03-28 09:02:00,28.0,26.0,30.33,West,271,0.0,-999.0,92,-99.99,,,-99.99,,2013-03-28 13:02:00,
2013-03-28 09:12:00,28.0,26.0,30.33,West,271,0.0,-999.0,92,-99.99,,,-99.99,,2013-03-28 13:12:00,
2013-03-28 09:22:00,31.0,29.0,30.33,West,271,0.0,-999.0,93,-99.99,,,-99.99,,2013-03-28 13:22:00,
2013-03-28 09:32:00,34.0,31.0,30.33,West,271,0.0,-999.0,90,-99.99,,,-99.99,,2013-03-28 13:32:00,
2013-03-28 09:42:00,34.0,31.0,30.33,West,271,0.0,-999.0,90,-99.99,,,-99.99,,2013-03-28 13:42:00,
2013-03-28 09:52:00,35.0,29.0,30.34,West,271,1.0,-999.0,78,-99.99,,,-99.99,,2013-03-28 13:52:00,
2013-03-28 10:02:00,36.0,29.0,30.34,West,271,2.0,-999.0,77,-99.99,,,-99.99,,2013-03-28 14:02:00,
2013-03-28 10:12:00,36.0,29.0,30.34,West,271,2.0,-999.0,77,-99.99,,,-99.99,,2013-03-28 14:12:00,
2013-03-28 10:22:00,37.0,28.0,30.34,West,271,0.0,-999.0,71,-99.99,,,-99.99,,2013-03-28 14:22:00,
2013-03-28 10:33:00,39.0,27.0,30.34,NE,51,2.0,-999.0,62,-99.99,,,-99.99,,2013-03-28 14:33:00,
2013-03-28 10:42:00,39.0,27.0,30.34,NE,51,2.0,-999.0,62,-99.99,,,-99.99,,2013-03-28 14:42:00,
2013-03-28 10:52:00,40.0,26.0,30.35,ENE,75,3.0,-999.0,57,-99.99,,,-99.99,,2013-03-28 14:52:00,
2013-03-28 11:02:00,41.0,25.0,30.35,ENE,64,2.0,-999.0,53,-99.99,,,-99.99,,2013-03-28 15:02:00,
2013-03-28 11:12:00,41.0,25.0,30.35,ENE,64,2.0,-999.0,53,-99.99,,,-99.99,,2013-03-28 15:12:00,
2013-03-28 11:22:00,41.0,26.0,30.35,East,84,4.0,-999.0,54,-99.99,,,-99.99,,2013-03-28 15:22:00,
2013-03-28 11:33:00,41.0,24.0,30.35,NW,305,3.0,-999.0,51,-99.99,,,-99.99,,2013-03-28 15:33:00,
2013-03-28 11:43:00,41.0,24.0,30.35,NW,305,3.0,-999.0,51,-99.99,,,-99.99,,2013-03-28 15:43:00,
2013-03-28 11:52:00,42.0,25.0,30.35,WNW,284,5.0,-999.0,51,-99.99,,,-99.99,,2013-03-28 15:52:00,
2013-03-28 12:03:00,42.0,24.0,30.35,North,5,5.0,-999.0,49,-99.99,,,-99.99,,2013-03-28 16:03:00,
2013-03-28 12:12:00,42.0,24.0,30.35,North,5,5.0,-999.0,49,-99.99,,,-99.99,,2013-03-28 16:12:00,
2013-03-28 12:23:00,43.0,27.0,30.35,NNW,327,3.0,-999.0,52,-99.99,,,-99.99,,2013-03-28 16:23:00,
2013-03-28 12:32:00,44.0,25.0,30.35,NW,321,5.0,-999.0,47,-99.99,,,-99.99,,2013-03-28 16:32:00,
2013-03-28 12:42:00,44.0,25.0,30.35,NW,321,5.0,-999.0,47,-99.99,,,-99.99,,2013-03-28 16:42:00,
2013-03-28 12:52:00,44.0,26.0,30.35,WNW,294,3.0,-999.0,49,-99.99,,,-99.99,,2013-03-28 16:52:00,
2013-03-28 13:02:00,44.0,26.0,30.35,NNW,328,6.0,-999.0,49,-99.99,,,-99.99,,2013-03-28 17:02:00,
2013-03-28 13:12:00,44.0,26.0,30.35,NNW,328,6.0,-999.0,49,-99.99,,,-99.99,,2013-03-28 17:12:00,
2013-03-28 13:22:00,45.0,26.0,30.34,NW,321,6.0,-999.0,47,-99.99,,,-99.99,,2013-03-28 17:22:00,
2013-03-28 13:32:00,45.0,26.0,30.34,NW,309,4.0,-999.0,47,-99.99,,,-99.99,,2013-03-28 17:32:00,
2013-03-28 13:42:00,45.0,26.0,30.34,NW,309,4.0,-999.0,47,-99.99,,,-99.99,,2013-03-28 17:42:00,
2013-03-28 13:52:00,44.0,24.0,30.34,WNW,302,6.0,-999.0,45,-99.99,,,-99.99,,2013-03-28 17:52:00,
2013-03-28 14:02:00,45.0,24.0,30.34,West,262,6.0,-999.0,43,-99.99,,,-99.99,,2013-03-28 18:02:00,
2013-03-28 14:12:00,45.0,24.0,30.34,West,262,6.0,-999.0,43,-99.99,,,-99.99,,2013-03-28 18:12:00,
2013-03-28 14:22:00,45.0,24.0,30.34,West,262,6.0,-999.0,43,-99.99,,,-99.99,,2013-03-28 18:22:00,
2013-03-28 14:32:00,47.0,28.0,30.33,West,267,2.0,-999.0,47,-99.99,,,-99.99,,2013-03-28 18:32:00,
2013-03-28 14:42:00,47.0,28.0,30.33,West,267,2.0,-999.0,47,-99.99,,,-99.99,,2013-03-28 18:42:00,
2013-03-28 14:52:00,46.0,27.0,30.32,WNW,286,5.0,-999.0,47,-99.99,,,-99.99,,2013-03-28 18:52:00,
2013-03-28 15:02:00,47.0,26.0,30.32,NW,314,7.0,-999.0,43,-99.99,,,-99.99,,2013-03-28 19:02:00,
2013-03-28 15:12:00,47.0,26.0,30.32,NW,314,7.0,-999.0,43,-99.99,,,-99.99,,2013-03-28 19:12:00,
2013-03-28 15:22:00,47.0,25.0,30.32,North,360,4.0,-999.0,41,-99.99,,,-99.99,,2013-03-28 19:22:00,
2013-03-28 15:33:00,48.0,27.0,30.31,WSW,246,3.0,-999.0,44,-99.99,,,-99.99,,2013-03-28 19:33:00,
2013-03-28 15:42:00,48.0,27.0,30.31,WSW,246,3.0,-999.0,44,-99.99,,,-99.99,,2013-03-28 19:42:00,
2013-03-28 15:52:00,49.0,27.0,30.30,NNE,24,3.0,-999.0,42,-99.99,,,-99.99,,2013-03-28 19:52:00,
2013-03-28 16:03:00,48.0,26.0,30.30,West,269,4.0,-999.0,42,-99.99,,,-99.99,,2013-03-28 20:03:00,
2013-03-28 16:12:00,48.0,26.0,30.30,West,269,4.0,-999.0,42,-99.99,,,-99.99,,2013-03-28 20:12:00,
2013-03-28 16:22:00,49.0,28.0,30.29,WNW,290,3.0,-999.0,44,-99.99,,,-99.99,,2013-03-28 20:22:00,
2013-03-28 16:33:00,48.0,26.0,30.29,SW,218,7.0,-999.0,42,-99.99,,,-99.99,,2013-03-28 20:33:00,
2013-03-28 16:42:00,48.0,26.0,30.29,SW,218,7.0,-999.0,42,-99.99,,,-99.99,,2013-03-28 20:42:00,
2013-03-28 16:52:00,49.0,26.0,30.29,West,281,6.0,-999.0,41,-99.99,,,-99.99,,2013-03-28 20:52:00,
2013-03-28 17:02:00,49.0,27.0,30.29,WNW,290,6.0,-999.0,42,-99.99,,,-99.99,,2013-03-28 21:02:00,
2013-03-28 17:12:00,49.0,27.0,30.29,WNW,290,6.0,-999.0,42,-99.99,,,-99.99,,2013-03-28 21:12:00,
2013-03-28 17:22:00,49.0,27.0,30.28,WNW,300,7.0,-999.0,43,-99.99,,,-99.99,,2013-03-28 21:22:00,
2013-03-28 17:33:00,49.0,27.0,30.28,WNW,298,5.0,-999.0,43,-99.99,,,-99.99,,2013-03-28 21:33:00,
2013-03-28 17:43:00,49.0,27.0,30.28,WNW,298,5.0,-999.0,43,-99.99,,,-99.99,,2013-03-28 21:43:00,
2013-03-28 17:53:00,49.0,26.0,30.28,West,269,4.0,-999.0,41,-99.99,,,-99.99,,2013-03-28 21:53:00,
2013-03-28 18:03:00,50.0,28.0,30.28,NW,319,5.0,-999.0,43,-99.99,,,-99.99,,2013-03-28 22:03:00,
2013-03-28 18:12:00,50.0,28.0,30.28,NW,319,5.0,-999.0,43,-99.99,,,-99.99,,2013-03-28 22:12:00,
2013-03-28 18:23:00,49.0,26.0,30.27,NNW,332,5.0,-999.0,40,-99.99,,,-99.99,,2013-03-28 22:23:00,
2013-03-28 18:32:00,49.0,26.0,30.28,NW,310,5.0,-999.0,41,-99.99,,,-99.99,,2013-03-28 22:32:00,
2013-03-28 18:42:00,49.0,26.0,30.28,NW,310,5.0,-999.0,41,-99.99,,,-99.99,,2013-03-28 22:42:00,
2013-03-28 18:52:00,49.0,27.0,30.27,NNW,348,3.0,-999.0,43,-99.99,,,-99.99,,2013-03-28 22:52:00,
2013-03-28 19:03:00,49.0,26.0,30.28,NNW,347,5.0,-999.0,41,-99.99,,,-99.99,,2013-03-28 23:03:00,
2013-03-28 19:12:00,49.0,26.0,30.28,NNW,347,5.0,-999.0,41,-99.99,,,-99.99,,2013-03-28 23:12:00,
2013-03-28 19:22:00,49.0,26.0,30.28,North,5,2.0,-999.0,41,-99.99,,,-99.99,,2013-03-28 23:22:00,
2013-03-28 19:32:00,49.0,26.0,30.28,NNE,20,2.0,-999.0,41,-99.99,,,-99.99,,2013-03-28 23:32:00,
2013-03-28 19:42:00,49.0,26.0,30.28,NNE,20,2.0,-999.0,41,-99.99,,,-99.99,,2013-03-28 23:42:00,
2013-03-28 19:52:00,48.0,26.0,30.28,NNE,19,1.0,-999.0,42,-99.99,,,-99.99,,2013-03-28 23:52:00,
2013-03-28 20:02:00,48.0,27.0,30.28,NNE,13,1.0,-999.0,44,-99.99,,,-99.99,,2013-03-29 00:02:00,
2013-03-28 20:12:00,48.0,27.0,30.28,NNE,13,1.0,-999.0,44,-99.99,,,-99.99,,2013-03-29 00:12:00,
2013-03-28 20:22:00,47.0,28.0,30.29,NW,324,0.0,-999.0,47,-99.99,,,-99.99,,2013-03-29 00:22:00,
2013-03-28 20:32:00,45.0,28.0,30.28,NW,324,0.0,-999.0,51,-99.99,,,-99.99,,2013-03-29 00:32:00,
2013-03-28 20:42:00,45.0,28.0,30.28,NW,324,0.0,-999.0,51,-99.99,,,-99.99,,2013-03-29 00:42:00,
2013-03-28 20:52:00,43.0,28.0,30.29,NW,324,0.0,-999.0,56,-99.99,,,-99.99,,2013-03-29 00:52:00,
2013-03-28 21:02:00,40.0,27.0,30.29,NW,324,0.0,-999.0,60,-99.99,,,-99.99,,2013-03-29 01:02:00,
2013-03-28 21:12:00,40.0,27.0,30.29,NW,324,0.0,-999.0,60,-99.99,,,-99.99,,2013-03-29 01:12:00,
2013-03-28 21:22:00,39.0,27.0,30.29,NW,324,0.0,-999.0,63,-99.99,,,-99.99,,2013-03-29 01:22:00,
2013-03-28 21:33:00,37.0,27.0,30.29,NW,324,0.0,-999.0,67,-99.99,,,-99.99,,2013-03-29 01:33:00,
2013-03-28 21:42:00,37.0,27.0,30.29,NW,324,0.0,-999.0,67,-99.99,,,-99.99,,2013-03-29 01:42:00,
2013-03-28 21:52:00,37.0,28.0,30.29,NW,324,0.0,-999.0,69,-99.99,,,-99.99,,2013-03-29 01:52:00,
2013-03-28 22:02:00,36.0,27.0,30.29,NW,324,0.0,-999.0,70,-99.99,,,-99.99,,2013-03-29 02:02:00,
2013-03-28 22:12:00,36.0,27.0,30.29,NW,324,0.0,-999.0,70,-99.99,,,-99.99,,2013-03-29 02:12:00,
2013-03-28 22:22:00,35.0,27.0,30.30,NW,324,0.0,-999.0,71,-99.99,,,-99.99,,2013-03-29 02:22:00,
2013-03-28 22:32:00,34.0,27.0,30.30,NW,324,0.0,-999.0,74,-99.99,,,-99.99,,2013-03-29 02:32:00,
2013-03-28 22:42:00,34.0,27.0,30.30,NW,324,0.0,-999.0,74,-99.99,,,-99.99,,2013-03-29 02:42:00,
2013-03-28 22:52:00,34.0,27.0,30.30,NW,324,0.0,-999.0,74,-99.99,,,-99.99,,2013-03-29 02:52:00,
2013-03-28 23:02:00,34.0,27.0,30.31,NW,324,0.0,-999.0,75,-99.99,,,-99.99,,2013-03-29 03:02:00,
2013-03-28 23:12:00,34.0,27.0,30.31,NW,324,0.0,-999.0,75,-99.99,,,-99.99,,2013-03-29 03:12:00,
2013-03-28 23:22:00,33.0,27.0,30.31,NW,324,0.0,-999.0,77,-99.99,,,-99.99,,2013-03-29 03:22:00,
2013-03-28 23:32:00,33.0,27.0,30.31,NW,324,0.0,-999.0,77,-99.99,,,-99.99,,2013-03-29 03:32:00,
2013-03-28 23:43:00,33.0,27.0,30.31,NW,324,0.0,-999.0,77,-99.99,,,-99.99,,2013-03-29 03:43:00,
2013-03-28 23:53:00,33.0,27.0,30.31,NW,324,0.0,-999.0,77,-99.99,,,-99.99,,2013-03-29 03:53:00,